KPUC/PUC METAR and TAF weather

Enter ICAO airport designator
Station Type Date Time Source
KPUC METAR 2020/09/19 20:53 UTC NOAA

KPUC 192053Z AUTO 23010G22KT 10SM FEW120 28/M01 A3001 RMK AO2 PK WND 20029/2013 SLP080 T02781006 56020


Station Type Date Time Source
KPUC Decoded METAR 2020/09/19 20:53 UTC NOAA

PRICE CARBON COUNTY AIRPORT, UT, United States (KPUC) 39-37N 110-45W 2091M
Sep 19, 2020 - 04:53 PM EDT / 2020.09.19 2053 UTC
Wind: from the SW (230 degrees) at 12 MPH (10 KT) gusting to 25 MPH (22 KT):0
Visibility: 10 mile(s):0
Sky conditions: mostly clear
Temperature: 82.0 F (27.8 C)
Dew Point: 30.9 F (-0.6 C)
Relative Humidity: 15%
Pressure (altimeter): 30.01 in. Hg (1016 hPa)
Pressure tendency: 0.06 inches (2.0 hPa) lower than three hours ago
ob: KPUC 192053Z AUTO 23010G22KT 10SM FEW120 28/M01 A3001 RMK AO2 PK WND 20029/2013 SLP080 T02781006 56020
cycle: 21

Station Type Date Time Source
KPUC TAF UTC NOAA

Error!

Example: see airport list